Lake View, Iowa
Current Conditions -  °F | °C
As of 9:35 AM on Saturday 22 Nov 2014 (Local Time) from KSLB Reporting Station
Moderate Fog Moderate Fog  
Wind Chill: 25°   Ceiling: 200
Heat Index: 36°   Visibility: 0mi
Dew Point: 36°   Wind: 17mph
Humidity: 100%   Direction: 220°SW
Pressure: 29.77"   Gusts: NA
Location:  42.31°N, 95.05°W
Report Text: KSLB 221535Z AUTO 22015KT M1/4SM FG OVC002 02/02 A2977 RMK AO2
Loading
Personal Weather Stations






























Interactive Weather Map New forecast layout! Learn more

10-Day Weather Forecast

Advertisements
Track Severe Weather on mobile